Time;durP1;ratioP1;P1;durP2;ratioP2;P2;SDS_P1;SDS_P2;PMS_P1;PMS_P2;Temp;Humidity;BMP_temperature;BMP_pressure;BME280_temperature;BME280_humidity;BME280_pressure;Samples;Min_cycle;Max_cycle;Signal;HPM_P1;HPM_P2
2024/01/22 00:00:08;;;;;;;0.00;0.00;;;;;;;;;;5042436;28;20029;-66
2024/01/22 00:02:34;;;;;;;0.00;0.00;;;;;;;;;;5037660;28;20036;-65
2024/01/22 00:05:00;;;;;;;0.00;0.00;;;;;;;;;;5041826;28;20036;-65
2024/01/22 00:07:26;;;;;;;0.00;0.00;;;;;;;;;;5031623;28;20037;-64
2024/01/22 00:09:52;;;;;;;0.00;0.00;;;;;;;;;;5038864;28;20064;-64
2024/01/22 00:12:18;;;;;;;0.00;0.00;;;;;;;;;;5041263;28;20095;-66
2024/01/22 00:14:44;;;;;;;0.00;0.00;;;;;;;;;;5036218;28;20025;-65
2024/01/22 00:17:11;;;;;;;0.00;0.00;;;;;;;;;;5034632;28;20063;-65
2024/01/22 00:19:37;;;;;;;0.00;0.00;;;;;;;;;;5043955;28;20155;-65
2024/01/22 00:22:03;;;;;;;0.00;0.00;;;;;;;;;;5034455;28;20029;-65
2024/01/22 00:24:29;;;;;;;0.00;0.00;;;;;;;;;;5041863;28;20432;-65
2024/01/22 00:26:54;;;;;;;0.00;0.00;;;;;;;;;;5035790;28;20090;-65
2024/01/22 00:29:20;;;;;;;0.00;0.00;;;;;;;;;;5042444;28;20029;-64
2024/01/22 00:31:46;;;;;;;0.00;0.00;;;;;;;;;;5040804;28;20048;-64
2024/01/22 00:34:12;;;;;;;0.00;0.00;;;;;;;;;;5040182;28;20103;-64
2024/01/22 00:36:38;;;;;;;0.00;0.00;;;;;;;;;;5042524;28;20041;-66
2024/01/22 00:39:04;;;;;;;0.00;0.00;;;;;;;;;;5040012;28;20033;-65
2024/01/22 00:41:30;;;;;;;0.00;0.00;;;;;;;;;;5036710;28;20029;-68
2024/01/22 00:43:56;;;;;;;0.00;0.00;;;;;;;;;;5038312;28;20114;-67
2024/01/22 00:46:22;;;;;;;0.00;0.00;;;;;;;;;;5044950;28;20433;-66
2024/01/22 00:48:48;;;;;;;0.00;0.00;;;;;;;;;;5036288;28;20121;-67
2024/01/22 00:51:14;;;;;;;0.00;0.00;;;;;;;;;;5035452;28;20041;-68
2024/01/22 00:53:40;;;;;;;0.00;0.00;;;;;;;;;;5039112;28;20420;-68
2024/01/22 00:56:06;;;;;;;0.00;0.00;;;;;;;;;;5040066;28;20345;-68
2024/01/22 00:58:32;;;;;;;0.00;0.00;;;;;;;;;;5035714;28;20831;-69
2024/01/22 01:00:58;;;;;;;0.00;0.00;;;;;;;;;;5036081;28;20072;-68
2024/01/22 01:03:24;;;;;;;0.00;0.00;;;;;;;;;;5036231;28;20249;-68
2024/01/22 01:05:50;;;;;;;0.00;0.00;;;;;;;;;;5038759;28;20084;-68
2024/01/22 01:08:16;;;;;;;0.00;0.00;;;;;;;;;;5036878;28;20032;-68
2024/01/22 01:10:42;;;;;;;0.00;0.00;;;;;;;;;;5033153;28;20041;-69
2024/01/22 01:13:08;;;;;;;0.00;0.00;;;;;;;;;;5036008;28;20041;-68
2024/01/22 01:15:34;;;;;;;0.00;0.00;;;;;;;;;;5036695;28;20449;-68
2024/01/22 01:18:00;;;;;;;0.00;0.00;;;;;;;;;;5040069;28;20441;-68
2024/01/22 01:20:26;;;;;;;0.00;0.00;;;;;;;;;;5033792;28;20049;-69
2024/01/22 01:22:52;;;;;;;0.00;0.00;;;;;;;;;;5041086;28;20380;-68
2024/01/22 01:25:18;;;;;;;0.00;0.00;;;;;;;;;;5036310;28;20541;-69
2024/01/22 01:27:44;;;;;;;0.00;0.00;;;;;;;;;;5043852;28;20382;-68
2024/01/22 01:30:10;;;;;;;0.00;0.00;;;;;;;;;;5036584;28;20448;-68
2024/01/22 01:32:37;;;;;;;0.00;0.00;;;;;;;;;;5036860;28;20041;-69
2024/01/22 01:35:03;;;;;;;0.00;0.00;;;;;;;;;;5038576;28;20506;-69
2024/01/22 01:37:28;;;;;;;0.00;0.00;;;;;;;;;;5035662;28;20206;-68
2024/01/22 01:39:54;;;;;;;0.00;0.00;;;;;;;;;;5036969;28;20033;-69
2024/01/22 01:42:20;;;;;;;0.00;0.00;;;;;;;;;;5033387;28;20118;-68
2024/01/22 01:44:50;;;;;;;0.00;0.00;;;;;;;;;;5032485;28;20147;-68
2024/01/22 01:47:17;;;;;;;0.00;0.00;;;;;;;;;;5035607;28;20048;-68
2024/01/22 01:49:43;;;;;;;0.00;0.00;;;;;;;;;;5037381;28;20163;-68
2024/01/22 01:52:10;;;;;;;0.00;0.00;;;;;;;;;;5035228;28;20037;-69
2024/01/22 01:54:37;;;;;;;0.00;0.00;;;;;;;;;;5026679;28;20033;-69
2024/01/22 01:57:03;;;;;;;0.00;0.00;;;;;;;;;;5037085;28;20322;-69
2024/01/22 01:59:29;;;;;;;0.00;0.00;;;;;;;;;;5036049;28;20029;-68
2024/01/22 02:01:55;;;;;;;0.00;0.00;;;;;;;;;;5037558;28;20448;-68
2024/01/22 02:04:21;;;;;;;0.00;0.00;;;;;;;;;;5040274;28;20125;-68
2024/01/22 02:06:47;;;;;;;0.00;0.00;;;;;;;;;;5039060;28;20405;-69
2024/01/22 02:09:13;;;;;;;0.00;0.00;;;;;;;;;;5038387;28;20040;-68
2024/01/22 02:11:39;;;;;;;0.00;0.00;;;;;;;;;;5036147;28;20139;-68
2024/01/22 02:14:05;;;;;;;0.00;0.00;;;;;;;;;;5035862;28;20159;-69
2024/01/22 02:16:31;;;;;;;0.00;0.00;;;;;;;;;;5036688;28;20025;-69
2024/01/22 02:18:57;;;;;;;0.00;0.00;;;;;;;;;;5035215;28;20333;-69
2024/01/22 02:21:23;;;;;;;0.00;0.00;;;;;;;;;;5032228;28;20464;-68
2024/01/22 02:23:49;;;;;;;0.00;0.00;;;;;;;;;;5032885;28;20025;-68
2024/01/22 02:26:15;;;;;;;0.00;0.00;;;;;;;;;;5034034;28;20037;-68
2024/01/22 02:28:41;;;;;;;0.00;0.00;;;;;;;;;;5038433;28;20061;-69
2024/01/22 02:31:08;;;;;;;0.00;0.00;;;;;;;;;;5037597;28;20029;-69
2024/01/22 02:33:34;;;;;;;0.00;0.00;;;;;;;;;;5031098;28;20171;-69
2024/01/22 02:36:00;;;;;;;0.00;0.00;;;;;;;;;;5040600;28;20045;-69
2024/01/22 02:38:26;;;;;;;0.00;0.00;;;;;;;;;;5039942;28;20041;-69
2024/01/22 02:40:52;;;;;;;0.00;0.00;;;;;;;;;;5040989;28;20036;-69
2024/01/22 02:43:18;;;;;;;0.00;0.00;;;;;;;;;;5039031;28;20017;-69
2024/01/22 02:45:44;;;;;;;0.00;0.00;;;;;;;;;;5041742;28;20082;-69
2024/01/22 02:48:10;;;;;;;0.00;0.00;;;;;;;;;;5036589;28;20037;-69
2024/01/22 02:50:36;;;;;;;0.00;0.00;;;;;;;;;;5043179;28;20049;-69
2024/01/22 02:53:02;;;;;;;0.00;0.00;;;;;;;;;;5036286;28;20045;-69
2024/01/22 02:55:28;;;;;;;0.00;0.00;;;;;;;;;;5044675;28;20032;-69
2024/01/22 02:57:54;;;;;;;0.00;0.00;;;;;;;;;;5037185;28;20100;-69
2024/01/22 03:00:20;;;;;;;0.00;0.00;;;;;;;;;;5048300;28;20139;-69
2024/01/22 03:02:46;;;;;;;0.00;0.00;;;;;;;;;;5039708;28;20099;-68
2024/01/22 03:05:12;;;;;;;0.00;0.00;;;;;;;;;;5042844;28;20039;-69
2024/01/22 03:07:38;;;;;;;0.00;0.00;;;;;;;;;;5035857;28;20029;-68
2024/01/22 03:10:04;;;;;;;0.00;0.00;;;;;;;;;;5040701;28;20037;-69
2024/01/22 03:12:30;;;;;;;0.00;0.00;;;;;;;;;;5034147;28;20672;-69
2024/01/22 03:14:55;;;;;;;0.00;0.00;;;;;;;;;;5041779;28;20025;-68
2024/01/22 03:17:21;;;;;;;0.00;0.00;;;;;;;;;;5041544;28;20071;-69
2024/01/22 03:19:47;;;;;;;0.00;0.00;;;;;;;;;;5040153;28;20466;-69
2024/01/22 03:22:13;;;;;;;0.00;0.00;;;;;;;;;;5041814;28;20028;-69
2024/01/22 03:24:44;;;;;;;0.00;0.00;;;;;;;;;;5040272;28;20112;-69
2024/01/22 03:27:10;;;;;;;0.00;0.00;;;;;;;;;;5038597;28;20292;-69
2024/01/22 03:29:36;;;;;;;0.00;0.00;;;;;;;;;;5040150;28;20124;-69
2024/01/22 03:32:02;;;;;;;0.00;0.00;;;;;;;;;;5038502;28;20068;-69
2024/01/22 03:34:28;;;;;;;0.00;0.00;;;;;;;;;;5044515;28;20322;-69
2024/01/22 03:36:54;;;;;;;0.00;0.00;;;;;;;;;;5040098;28;20437;-69
2024/01/22 03:39:20;;;;;;;0.00;0.00;;;;;;;;;;5032959;28;20099;-69
2024/01/22 03:41:45;;;;;;;0.00;0.00;;;;;;;;;;5034720;28;20060;-68
2024/01/22 03:44:11;;;;;;;0.00;0.00;;;9.30;99.90;;;;;;5043176;28;20033;-69
2024/01/22 03:46:37;;;;;;;0.00;0.00;;;9.40;99.90;;;;;;5039075;28;20029;-69
2024/01/22 03:49:02;;;;;;;0.00;0.00;;;;;;;;;;5037092;28;20068;-69
2024/01/22 03:51:28;;;;;;;0.00;0.00;;;9.20;99.90;;;;;;5039707;28;20036;-69
2024/01/22 03:53:53;;;;;;;0.00;0.00;;;9.30;99.90;;;;;;5037239;28;20087;-69
2024/01/22 03:56:20;;;;;;;0.00;0.00;;;;;;;;;;5034207;28;20025;-69
2024/01/22 03:58:46;;;;;;;0.00;0.00;;;9.20;99.90;;;;;;5036492;28;20072;-69
2024/01/22 04:01:21;;;;;;;0.00;0.00;;;9.20;99.90;;;;;;5033791;28;20018;-69
2024/01/22 04:03:46;;;;;;;0.00;0.00;;;9.10;99.90;;;;;;5040429;28;20036;-69
2024/01/22 04:06:12;;;;;;;0.00;0.00;;;9.20;99.90;;;;;;5040169;28;20029;-68
2024/01/22 04:08:37;;;;;;;0.00;0.00;;;9.20;99.90;;;;;;5033022;28;20105;-69
2024/01/22 04:11:03;;;;;;;0.00;0.00;;;;;;;;;;5038345;28;20101;-69
2024/01/22 04:13:29;;;;;;;0.00;0.00;;;8.60;99.90;;;;;;5035209;28;20065;-69
2024/01/22 04:15:54;;;;;;;0.00;0.00;;;9.30;99.90;;;;;;5040958;28;20512;-68
2024/01/22 04:18:20;;;;;;;0.00;0.00;;;9.50;99.90;;;;;;5030103;28;20426;-69
2024/01/22 04:20:45;;;;;;;0.00;0.00;;;9.40;99.90;;;;;;5040797;28;20719;-69
2024/01/22 04:23:11;;;;;;;0.00;0.00;;;9.40;99.90;;;;;;5043619;28;20486;-69
2024/01/22 04:25:37;;;;;;;0.00;0.00;;;;;;;;;;5034601;28;20104;-69
2024/01/22 04:28:03;;;;;;;0.00;0.00;;;9.30;99.90;;;;;;5039376;28;20033;-68
2024/01/22 04:30:28;;;;;;;0.00;0.00;;;9.40;99.90;;;;;;5036329;28;20033;-69
2024/01/22 04:32:55;;;;;;;0.00;0.00;;;;;;;;;;5038933;28;20116;-67
2024/01/22 04:35:20;;;;;;;0.00;0.00;;;9.20;99.90;;;;;;5032298;28;20022;-67
2024/01/22 04:37:46;;;;;;;0.00;0.00;;;9.40;99.90;;;;;;5034967;28;20082;-68
2024/01/22 04:40:13;;;;;;;0.00;0.00;;;9.40;99.90;;;;;;5037381;28;20948;-67
2024/01/22 04:42:41;;;;;;;0.00;0.00;;;9.30;99.90;;;;;;5040641;28;20112;-68
2024/01/22 04:45:07;;;;;;;0.00;0.00;;;9.30;99.90;;;;;;5040081;28;20025;-66
2024/01/22 04:47:33;;;;;;;0.00;0.00;;;9.30;99.90;;;;;;5039748;28;20068;-66
2024/01/22 04:49:58;;;;;;;0.00;0.00;;;9.40;99.90;;;;;;5036993;28;20029;-66
2024/01/22 04:52:24;;;;;;;0.00;0.00;;;9.50;99.90;;;;;;5039790;28;20037;-67
2024/01/22 04:54:50;;;;;;;0.00;0.00;;;9.50;99.90;;;;;;5035417;28;20029;-66
2024/01/22 04:57:15;;;;;;;0.00;0.00;;;9.50;99.90;;;;;;5040172;28;20029;-66
2024/01/22 04:59:41;;;;;;;0.00;0.00;;;9.50;99.90;;;;;;5043387;28;20059;-66
2024/01/22 05:02:07;;;;;;;0.00;0.00;;;;;;;;;;5038497;28;20029;-66
2024/01/22 05:04:35;;;;;;;0.00;0.00;;;;;;;;;;5037875;28;20086;-66
2024/01/22 05:07:01;;;;;;;0.00;0.00;;;9.60;99.90;;;;;;5035086;28;20039;-67
2024/01/22 05:09:27;;;;;;;0.00;0.00;;;;;;;;;;5038005;28;20033;-67
2024/01/22 05:11:52;;;;;;;0.00;0.00;;;9.60;99.90;;;;;;5037458;28;20100;-67
2024/01/22 05:14:18;;;;;;;0.00;0.00;;;9.70;99.90;;;;;;5037355;28;20044;-66
2024/01/22 05:16:43;;;;;;;0.00;0.00;;;9.70;99.90;;;;;;5036963;28;20064;-66
2024/01/22 05:19:09;;;;;;;0.00;0.00;;;9.70;99.90;;;;;;5038423;28;20161;-65
2024/01/22 05:21:35;;;;;;;0.00;0.00;;;9.70;99.90;;;;;;5040451;28;20032;-67
2024/01/22 05:24:00;;;;;;;0.00;0.00;;;9.80;99.90;;;;;;5032076;28;20057;-67
2024/01/22 05:26:26;;;;;;;0.00;0.00;;;9.70;99.90;;;;;;5038161;28;20059;-67
2024/01/22 05:28:51;;;;;;;0.00;0.00;;;9.80;99.90;;;;;;5036208;28;20047;-67
2024/01/22 05:31:17;;;;;;;0.00;0.00;;;9.80;99.90;;;;;;5035576;28;20035;-67
2024/01/22 05:33:42;;;;;;;0.00;0.00;;;9.80;99.90;;;;;;5034987;28;20037;-67
2024/01/22 05:36:09;;;;;;;0.00;0.00;;;9.90;99.90;;;;;;5041014;28;20028;-68
2024/01/22 05:38:34;;;;;;;0.00;0.00;;;9.90;99.90;;;;;;5039907;28;20048;-67
2024/01/22 05:41:00;;;;;;;0.00;0.00;;;10.00;99.90;;;;;;5035926;28;20441;-68
2024/01/22 05:43:25;;;;;;;0.00;0.00;;;10.00;99.90;;;;;;5036539;28;20044;-69
2024/01/22 05:45:51;;;;;;;0.00;0.00;;;10.00;99.90;;;;;;5034950;28;20021;-69
2024/01/22 05:48:16;;;;;;;0.00;0.00;;;10.00;99.90;;;;;;5039581;28;20503;-70
2024/01/22 05:50:42;;;;;;;0.00;0.00;;;10.10;99.90;;;;;;5036151;28;20045;-69
2024/01/22 05:53:07;;;;;;;0.00;0.00;;;10.10;99.90;;;;;;5032842;28;20546;-68
2024/01/22 05:55:33;;;;;;;0.00;0.00;;;10.20;99.90;;;;;;5037773;28;20029;-68
2024/01/22 05:57:58;;;;;;;0.00;0.00;;;10.10;99.90;;;;;;5034751;28;20049;-68
2024/01/22 06:00:24;;;;;;;0.00;0.00;;;9.90;99.90;;;;;;5031588;28;20095;-68
2024/01/22 06:02:50;;;;;;;0.00;0.00;;;;;;;;;;5031230;28;20452;-67
2024/01/22 06:05:15;;;;;;;0.00;0.00;;;10.20;99.90;;;;;;5035160;28;20471;-68
2024/01/22 06:07:41;;;;;;;0.00;0.00;;;10.20;99.90;;;;;;5037568;28;20582;-68
2024/01/22 06:10:08;;;;;;;0.00;0.00;;;10.10;99.90;;;;;;5038863;28;20095;-67
2024/01/22 06:12:34;;;;;;;0.00;0.00;;;10.20;99.90;;;;;;5035483;28;20084;-68
2024/01/22 06:15:00;;;;;;;0.00;0.00;;;10.30;99.90;;;;;;5035104;28;20025;-68
2024/01/22 06:17:30;;;;;;;0.00;0.00;;;10.30;99.90;;;;;;5038705;28;20034;-67
2024/01/22 06:20:00;;;;;;;0.00;0.00;;;10.30;99.90;;;;;;5040734;28;20557;-68
2024/01/22 06:22:26;;;;;;;0.00;0.00;;;10.30;99.90;;;;;;5036383;28;20117;-67
2024/01/22 06:24:52;;;;;;;0.00;0.00;;;10.50;99.90;;;;;;5044895;28;20467;-68
2024/01/22 06:27:18;;;;;;;0.00;0.00;;;;;;;;;;5039078;28;20093;-69
2024/01/22 06:29:44;;;;;;;0.00;0.00;;;10.40;99.90;;;;;;5043001;28;20041;-68
2024/01/22 06:32:10;;;;;;;0.00;0.00;;;10.30;99.90;;;;;;5037839;28;20467;-68
2024/01/22 06:34:36;;;;;;;0.00;0.00;;;10.30;99.90;;;;;;5035615;28;20132;-68
2024/01/22 06:37:03;;;;;;;0.00;0.00;;;10.30;99.90;;;;;;5038992;28;20052;-68
2024/01/22 06:39:28;;;;;;;0.00;0.00;;;10.30;99.90;;;;;;5038323;28;20461;-67
2024/01/22 06:41:54;;;;;;;0.00;0.00;;;10.30;99.90;;;;;;5041969;28;20135;-68
2024/01/22 06:44:20;;;;;;;0.00;0.00;;;10.30;99.90;;;;;;5043746;28;20021;-67
2024/01/22 06:46:45;;;;;;;0.00;0.00;;;10.30;99.90;;;;;;5037847;28;20120;-67
2024/01/22 06:49:11;;;;;;;0.00;0.00;;;10.20;99.90;;;;;;5033004;28;20059;-66
2024/01/22 06:51:36;;;;;;;0.00;0.00;;;10.20;99.90;;;;;;5041998;28;20400;-66
2024/01/22 06:54:02;;;;;;;0.00;0.00;;;10.20;99.90;;;;;;5032548;28;20551;-67
2024/01/22 06:56:27;;;;;;;0.00;0.00;;;10.20;99.90;;;;;;5037976;28;20444;-66
2024/01/22 06:58:53;;;;;;;0.00;0.00;;;10.20;99.90;;;;;;5038599;28;20027;-67
2024/01/22 07:01:19;;;;;;;0.00;0.00;;;10.20;99.90;;;;;;5041747;28;20037;-66
2024/01/22 07:03:45;;;;;;;0.00;0.00;;;10.20;99.90;;;;;;5039645;28;20033;-68
2024/01/22 07:06:11;;;;;;;0.00;0.00;;;10.20;99.90;;;;;;5039215;28;20045;-66
2024/01/22 07:08:36;;;;;;;0.00;0.00;;;10.30;99.90;;;;;;5035902;28;20092;-66
2024/01/22 07:11:02;;;;;;;0.00;0.00;;;10.20;99.90;;;;;;5032491;28;20049;-66
2024/01/22 07:13:28;;;;;;;0.00;0.00;;;10.30;99.90;;;;;;5041502;28;20052;-66
2024/01/22 07:15:54;;;;;;;0.00;0.00;;;10.30;99.90;;;;;;5038583;28;20083;-69
2024/01/22 07:18:19;;;;;;;0.00;0.00;;;10.30;99.90;;;;;;5036861;28;20028;-69
2024/01/22 07:20:45;;;;;;;0.00;0.00;;;10.30;99.90;;;;;;5033639;28;20621;-69
2024/01/22 07:23:10;;;;;;;0.00;0.00;;;10.40;99.90;;;;;;5037222;28;20061;-69
2024/01/22 07:25:37;;;;;;;0.00;0.00;;;10.50;99.90;;;;;;5037793;28;20045;-69
2024/01/22 07:28:05;;;;;;;0.00;0.00;;;10.50;99.90;;;;;;5036152;28;20052;-69
2024/01/22 07:30:31;;;;;;;0.00;0.00;;;10.60;99.90;;;;;;5037694;28;20582;-69
2024/01/22 07:32:57;;;;;;;0.00;0.00;;;10.60;99.90;;;;;;5040989;28;20147;-69
2024/01/22 07:35:24;;;;;;;0.00;0.00;;;;;;;;;;5039659;28;20059;-69
2024/01/22 07:37:50;;;;;;;0.00;0.00;;;10.60;99.90;;;;;;5034309;28;20017;-70
2024/01/22 07:40:16;;;;;;;0.00;0.00;;;10.70;99.90;;;;;;5034645;28;20029;-69
2024/01/22 07:42:42;;;;;;;0.00;0.00;;;10.70;99.90;;;;;;5039713;28;20027;-69
2024/01/22 07:45:10;;;;;;;0.00;0.00;;;10.80;99.90;;;;;;5039425;28;20028;-69
2024/01/22 07:47:36;;;;;;;0.00;0.00;;;10.80;99.90;;;;;;5038696;28;20032;-69
2024/01/22 07:50:05;;;;;;;0.00;0.00;;;10.80;99.90;;;;;;5039735;28;20473;-69
2024/01/22 07:52:33;;;;;;;0.00;0.00;;;;;;;;;;5034644;28;20040;-69
2024/01/22 07:54:59;;;;;;;0.00;0.00;;;10.80;99.90;;;;;;5038594;28;20119;-69
2024/01/22 07:57:24;;;;;;;0.00;0.00;;;10.80;99.90;;;;;;5038832;28;20056;-69
2024/01/22 07:59:50;;;;;;;0.00;0.00;;;10.80;99.90;;;;;;5036415;28;20110;-69
2024/01/22 08:02:16;;;;;;;0.00;0.00;;;10.80;99.90;;;;;;5031697;28;20022;-69
2024/01/22 08:04:43;;;;;;;0.00;0.00;;;;;;;;;;5042370;28;20032;-69
2024/01/22 08:07:09;;;;;;;0.00;0.00;;;;;;;;;;5038703;28;20035;-69
2024/01/22 08:09:38;;;;;;;0.00;0.00;;;10.70;99.90;;;;;;5036685;28;20039;-69
2024/01/22 08:12:04;;;;;;;0.00;0.00;;;10.50;99.90;;;;;;5037070;28;20037;-70
2024/01/22 08:14:31;;;;;;;0.00;0.00;;;10.80;99.90;;;;;;5036176;28;20052;-69
2024/01/22 08:16:56;;;;;;;0.00;0.00;;;10.60;99.90;;;;;;5032577;28;20029;-69
2024/01/22 08:19:22;;;;;;;0.00;0.00;;;;;;;;;;5042041;28;20483;-69
2024/01/22 08:21:48;;;;;;;0.00;0.00;;;10.70;99.90;;;;;;5038767;28;20060;-70
2024/01/22 08:24:14;;;;;;;0.00;0.00;;;10.50;99.90;;;;;;5047476;28;20455;-69
2024/01/22 08:26:39;;;;;;;0.00;0.00;;;10.50;99.90;;;;;;5043010;28;20555;-69
2024/01/22 08:29:05;;;;;;;0.00;0.00;;;10.60;99.90;;;;;;5039344;28;20039;-69
2024/01/22 08:31:31;;;;;;;0.00;0.00;;;10.60;99.90;;;;;;5039481;28;20036;-70
2024/01/22 08:33:56;;;;;;;0.00;0.00;;;10.50;99.90;;;;;;5042642;28;20538;-66
2024/01/22 08:36:22;;;;;;;0.00;0.00;;;10.40;99.90;;;;;;5037016;28;20521;-66
2024/01/22 08:38:48;;;;;;;0.00;0.00;;;10.40;99.90;;;;;;5043165;28;20119;-67
2024/01/22 08:41:13;;;;;;;0.00;0.00;;;10.40;99.90;;;;;;5041115;28;20531;-66
2024/01/22 08:43:39;;;;;;;0.00;0.00;;;10.40;99.90;;;;;;5036404;28;20503;-66
2024/01/22 08:46:04;;;;;;;0.00;0.00;;;10.30;99.90;;;;;;5040692;28;20025;-65
2024/01/22 08:48:33;;;;;;;0.00;0.00;;;10.40;99.90;;;;;;5038723;28;20099;-66
2024/01/22 08:50:58;;;;;;;0.00;0.00;;;10.40;99.90;;;;;;5043081;28;20204;-65
2024/01/22 08:53:24;;;;;;;0.00;0.00;;;10.50;99.90;;;;;;5037345;28;20484;-66
2024/01/22 08:55:49;;;;;;;0.00;0.00;;;10.50;99.90;;;;;;5041644;28;20018;-66
2024/01/22 08:58:15;;;;;;;0.00;0.00;;;10.60;99.90;;;;;;5040210;28;20124;-67
2024/01/22 09:00:41;;;;;;;0.00;0.00;;;10.60;99.90;;;;;;5032532;28;20041;-66
2024/01/22 09:03:07;;;;;;;0.00;0.00;;;10.60;99.90;;;;;;5036971;28;20494;-66
2024/01/22 09:05:33;;;;;;;0.00;0.00;;;10.60;99.90;;;;;;5036448;28;20032;-67
2024/01/22 09:07:59;;;;;;;0.00;0.00;;;10.60;99.90;;;;;;5039323;28;20055;-66
2024/01/22 09:10:26;;;;;;;0.00;0.00;;;10.60;99.90;;;;;;5038885;28;20103;-67
2024/01/22 09:12:52;;;;;;;0.00;0.00;;;10.60;99.90;;;;;;5036437;28;20098;-66
2024/01/22 09:15:17;;;;;;;0.00;0.00;;;10.60;99.90;;;;;;5039309;28;20032;-65
2024/01/22 09:17:44;;;;;;;0.00;0.00;;;10.60;99.90;;;;;;5041342;28;20032;-65
2024/01/22 09:20:10;;;;;;;0.00;0.00;;;10.70;99.90;;;;;;5036608;28;20037;-65
2024/01/22 09:22:36;;;;;;;0.00;0.00;;;10.70;99.90;;;;;;5037027;28;20559;-65
2024/01/22 09:25:02;;;;;;;0.00;0.00;;;10.70;99.90;;;;;;5040047;28;20063;-66
2024/01/22 09:27:28;;;;;;;0.00;0.00;;;10.70;99.90;;;;;;5040718;28;20121;-67
2024/01/22 09:29:53;;;;;;;0.00;0.00;;;10.80;99.90;;;;;;5040626;28;20033;-66
2024/01/22 09:32:19;;;;;;;0.00;0.00;;;10.80;99.90;;;;;;5040485;28;20049;-66
2024/01/22 09:34:45;;;;;;;0.00;0.00;;;10.80;99.90;;;;;;5035314;28;20041;-68
2024/01/22 09:37:11;;;;;;;0.00;0.00;;;10.90;99.90;;;;;;5030645;28;20400;-66
2024/01/22 09:39:37;;;;;;;0.00;0.00;;;10.90;99.90;;;;;;5039986;28;20051;-66
2024/01/22 09:42:04;;;;;;;0.00;0.00;;;10.90;99.90;;;;;;5039448;28;20136;-66
2024/01/22 09:44:30;;;;;;;0.00;0.00;;;10.90;99.90;;;;;;5035980;28;20056;-67
2024/01/22 09:46:56;;;;;;;0.00;0.00;;;10.60;99.90;;;;;;5031290;28;20028;-66
2024/01/22 09:49:23;;;;;;;0.00;0.00;;;10.80;99.90;;;;;;5029878;28;20033;-66
2024/01/22 09:51:50;;;;;;;0.00;0.00;;;10.90;99.90;;;;;;5035186;28;20475;-66
2024/01/22 09:54:18;;;;;;;0.00;0.00;;;10.90;99.90;;;;;;5040212;28;20021;-69
2024/01/22 09:56:50;;;;;;;0.00;0.00;;;10.90;99.90;;;;;;5037300;28;20500;-70
2024/01/22 09:59:28;;;;;;;0.00;0.00;;;10.90;99.90;;;;;;5040016;28;20425;-69
2024/01/22 10:01:55;;;;;;;0.00;0.00;;;11.00;99.90;;;;;;5038684;28;20116;-69
2024/01/22 10:04:23;;;;;;;0.00;0.00;;;11.00;99.90;;;;;;5040230;28;20068;-70
2024/01/22 10:06:49;;;;;;;0.00;0.00;;;11.00;99.90;;;;;;5044646;28;20067;-69
2024/01/22 10:09:17;;;;;;;0.00;0.00;;;;;;;;;;5044174;28;20028;-70
2024/01/22 10:11:43;;;;;;;0.00;0.00;;;11.00;99.90;;;;;;5042203;28;20033;-69
2024/01/22 10:14:09;;;;;;;0.00;0.00;;;11.00;99.90;;;;;;5041129;28;20017;-69
2024/01/22 10:16:38;;;;;;;0.00;0.00;;;11.10;99.90;;;;;;5043898;28;20609;-69
2024/01/22 10:19:05;;;;;;;0.00;0.00;;;11.10;99.90;;;;;;5041489;28;20493;-69
2024/01/22 10:21:31;;;;;;;0.00;0.00;;;11.10;99.90;;;;;;5037558;28;20021;-70
2024/01/22 10:24:00;;;;;;;0.00;0.00;;;11.10;99.90;;;;;;5039814;28;20036;-69
2024/01/22 10:26:27;;;;;;;0.00;0.00;;;11.10;99.90;;;;;;5044242;28;20028;-69
2024/01/22 10:28:53;;;;;;;0.00;0.00;;;11.20;99.90;;;;;;5040555;28;20040;-69
2024/01/22 10:31:19;;;;;;;0.00;0.00;;;11.20;99.90;;;;;;5045941;28;20033;-70
2024/01/22 10:33:48;;;;;;;0.00;0.00;;;11.20;99.90;;;;;;5036489;28;20391;-69
2024/01/22 10:36:21;;;;;;;0.00;0.00;;;11.20;99.90;;;;;;5040923;28;20371;-72
2024/01/22 10:38:48;;;;;;;0.00;0.00;;;11.20;99.90;;;;;;5035547;28;20033;-69
2024/01/22 10:41:18;;;;;;;0.00;0.00;;;11.30;99.90;;;;;;5044698;28;20020;-69
2024/01/22 10:43:45;;;;;;;0.00;0.00;;;11.30;99.90;;;;;;5042336;28;20646;-69
2024/01/22 10:46:11;;;;;;;0.00;0.00;;;11.30;99.90;;;;;;5040799;28;20028;-69
2024/01/22 10:48:37;;;;;;;0.00;0.00;;;11.30;99.90;;;;;;5038902;28;20417;-70
2024/01/22 10:51:04;;;;;;;0.00;0.00;;;11.30;99.90;;;;;;5043255;28;20029;-70
2024/01/22 10:53:32;;;;;;;0.00;0.00;;;11.40;99.90;;;;;;5040249;28;20068;-70
2024/01/22 10:56:18;;;;;;;0.00;0.00;;;11.40;99.90;;;;;;5040821;28;20096;-69
2024/01/22 10:58:45;;;;;;;0.00;0.00;;;11.40;99.90;;;;;;5044506;28;20041;-69
2024/01/22 11:01:18;;;;;;;0.00;0.00;;;11.40;99.90;;;;;;5044539;28;20361;-69
2024/01/22 11:03:48;;;;;;;0.00;0.00;;;11.40;99.90;;;;;;5044859;28;20040;-66
2024/01/22 11:06:19;;;;;;;0.00;0.00;;;11.40;99.90;;;;;;5045804;28;20441;-66
2024/01/22 11:08:49;;;;;;;0.00;0.00;;;11.50;99.90;;;;;;5042753;28;20442;-67
2024/01/22 11:11:18;;;;;;;0.00;0.00;;;11.50;99.90;;;;;;5039876;28;20028;-66
2024/01/22 11:13:49;;;;;;;0.00;0.00;;;11.50;99.90;;;;;;5045619;28;20033;-65
2024/01/22 11:16:15;;;;;;;0.00;0.00;;;11.50;99.90;;;;;;5036021;28;20040;-65
2024/01/22 11:19:00;;;;;;;0.00;0.00;;;11.50;99.90;;;;;;5040638;28;20041;-66
2024/01/22 11:21:34;;;;;;;0.00;0.00;;;11.50;99.90;;;;;;5043958;28;20097;-66
2024/01/22 11:24:16;;;;;;;0.00;0.00;;;11.50;99.90;;;;;;5036915;28;20622;-66
2024/01/22 11:26:49;;;;;;;0.00;0.00;;;11.40;99.90;;;;;;5041979;28;20484;-65
2024/01/22 11:29:15;;;;;;;;;;;11.40;99.90;;;;;;5043846;28;20441;-66
2024/01/22 11:31:41;;;;;;;0.00;0.00;;;11.40;99.90;;;;;;5039567;28;20399;-65
2024/01/22 11:34:06;;;;;;;0.00;0.00;;;11.40;99.90;;;;;;5043932;28;20143;-64
2024/01/22 11:36:53;;;;;;;0.00;0.00;;;11.40;99.90;;;;;;5044571;28;20033;-64
2024/01/22 11:39:39;;;;;;;0.00;0.00;;;11.40;99.90;;;;;;5043950;28;20027;-65
2024/01/22 11:42:37;;;;;;;0.00;0.00;;;11.30;99.90;;;;;;5042016;28;20033;-64
2024/01/22 11:45:13;;;;;;;0.00;0.00;;;10.80;99.90;;;;;;5006378;28;20056;-65
2024/01/22 11:47:42;;;;;;;0.00;0.00;;;10.70;99.90;;;;;;5042251;28;20044;-65
2024/01/22 11:50:08;;;;;;;0.00;0.00;;;10.70;99.90;;;;;;5040995;28;20032;-68
2024/01/22 11:52:35;;;;;;;0.00;0.00;;;10.60;99.90;;;;;;5036818;28;20045;-67
2024/01/22 11:55:06;;;;;;;0.00;0.00;;;10.50;99.90;;;;;;5041488;28;20608;-64
2024/01/22 11:57:35;;;;;;;0.00;0.00;;;10.40;99.90;;;;;;5046710;28;20025;-64
2024/01/22 12:00:05;;;;;;;0.00;0.00;;;10.40;99.90;;;;;;5041349;28;20040;-66
2024/01/22 12:02:34;;;;;;;0.00;0.00;;;10.50;99.90;;;;;;5038226;28;20037;-65
2024/01/22 12:05:00;;;;;;;0.00;0.00;;;10.60;99.90;;;;;;5040542;28;20278;-66
2024/01/22 12:07:33;;;;;;;0.00;0.00;;;10.60;99.90;;;;;;5033651;28;20482;-66
2024/01/22 12:09:59;;;;;;;0.00;0.00;;;10.60;99.90;;;;;;5039713;28;20121;-65
2024/01/22 12:12:25;;;;;;;0.00;0.00;;;10.70;99.90;;;;;;5043443;28;20179;-64
2024/01/22 12:14:55;;;;;;;0.00;0.00;;;10.70;99.90;;;;;;5049044;28;20264;-69
2024/01/22 12:17:20;;;;;;;0.00;0.00;;;10.70;99.90;;;;;;5043237;28;20368;-70
2024/01/22 12:19:48;;;;;;;0.00;0.00;;;10.80;99.90;;;;;;5043013;28;20036;-69
2024/01/22 12:22:13;;;;;;;0.00;0.00;;;10.80;99.90;;;;;;5039682;28;20010;-69
2024/01/22 12:24:39;;;;;;;0.00;0.00;;;10.80;99.90;;;;;;5042141;28;20032;-65
2024/01/22 12:27:05;;;;;;;0.00;0.00;;;10.70;99.90;;;;;;5043960;28;20124;-66
2024/01/22 12:29:30;;;;;;;0.00;0.00;;;10.80;99.90;;;;;;5047908;28;20178;-64
2024/01/22 12:32:06;;;;;;;0.00;0.00;;;10.80;99.90;;;;;;5038567;28;20135;-66
2024/01/22 12:34:33;;;;;;;0.00;0.00;;;10.70;99.90;;;;;;5041037;28;20036;-65
2024/01/22 12:37:12;;;;;;;0.00;0.00;;;10.70;99.90;;;;;;5040369;28;20048;-65
2024/01/22 12:39:38;;;;;;;0.00;0.00;;;10.70;99.90;;;;;;5040923;28;20037;-65
2024/01/22 12:42:04;;;;;;;0.00;0.00;;;;;;;;;;5042772;28;20062;-66
2024/01/22 12:44:29;;;;;;;0.00;0.00;;;10.80;99.90;;;;;;5036846;28;20147;-64
2024/01/22 12:46:55;;;;;;;0.00;0.00;;;10.80;99.90;;;;;;5040833;28;20116;-66
2024/01/22 12:49:20;;;;;;;0.00;0.00;;;10.90;99.90;;;;;;5040516;28;20041;-64
2024/01/22 12:51:46;;;;;;;0.00;0.00;;;10.90;99.90;;;;;;5034554;28;20085;-65
2024/01/22 12:54:13;;;;;;;0.00;0.00;;;10.80;99.90;;;;;;5042174;28;21275;-65
2024/01/22 12:56:39;;;;;;;0.00;0.00;;;10.80;99.90;;;;;;5041109;28;20052;-66
2024/01/22 12:59:05;;;;;;;0.00;0.00;;;10.80;99.90;;;;;;5041139;28;20429;-65
2024/01/22 13:01:33;;;;;;;0.00;0.00;;;10.80;99.90;;;;;;5039807;28;20020;-65
2024/01/22 13:03:58;;;;;;;0.00;0.00;;;10.90;99.90;;;;;;5039705;28;20151;-65
2024/01/22 13:06:24;;;;;;;0.00;0.00;;;10.90;99.90;;;;;;5038572;28;20456;-65
2024/01/22 13:08:51;;;;;;;0.00;0.00;;;11.00;99.90;;;;;;5035636;28;20112;-66
2024/01/22 13:11:17;;;;;;;0.00;0.00;;;11.00;99.90;;;;;;5043352;28;20025;-66
2024/01/22 13:13:42;;;;;;;0.00;0.00;;;11.00;99.90;;;;;;5042085;28;20033;-66
2024/01/22 13:16:08;;;;;;;0.00;0.00;;;11.10;99.90;;;;;;5036207;28;20103;-65
2024/01/22 13:18:33;;;;;;;0.00;0.00;;;11.00;99.90;;;;;;5039612;28;20430;-65
2024/01/22 13:20:59;;;;;;;0.00;0.00;;;11.10;99.90;;;;;;5040968;28;20024;-65